KAVX/AVX METAR and TAF weather

Enter ICAO airport designator
Station Type Date Time Source
KAVX METAR 2019/06/16 12:51 UTC NOAA

KAVX 161251Z AUTO 23003KT 1/4SM FG VV002 13/13 A2990 RMK AO2 SLP116 T01330133 $


Station Type Date Time Source
KAVX Decoded METAR 2019/06/16 12:51 UTC NOAA

AVALON CATALINA AIRPORT, CA, United States (KAVX) 33-24N 118-25W 482M
Jun 16, 2019 - 08:51 AM EDT / 2019.06.16 1251 UTC
Wind: from the SW (230 degrees) at 3 MPH (3 KT):0
Visibility: 1/4 mile(s):0
Sky conditions: obscured
Weather: fog
Temperature: 55.9 F (13.3 C)
Dew Point: 55.9 F (13.3 C)
Relative Humidity: 100%
Pressure (altimeter): 29.9 in. Hg (1012 hPa)
ob: KAVX 161251Z AUTO 23003KT 1/4SM FG VV002 13/13 A2990 RMK AO2 SLP116 T01330133
cycle: 13

Station Type Date Time Source
KAVX TAF UTC NOAA

Error!

Example: see airport list